Terminal Aerodrome Forecast
Issued by NWS

Home | Current Version | Previous Version | Text Only | Print | Product List | Glossary On
Versions: 1 2 3 4 5 6 7 8 9 10 11 12
000
FTUS41 KBTV 230500
TAFSLK
TAF
KSLK 230532Z 2306/2406 30008KT 5SM -RA BR OVC003
      TEMPO 2306/2310 3SM -RA BR OVC006
     FM231400 30009G18KT P6SM VCSH BKN005 OVC011
     FM240000 29009KT P6SM VCSH SCT005 OVC011=

USA.gov is the U.S. government's official web portal to all federal, state and local government web resources and services.